createdAt,value
2022-08-06T00:00:08.123Z,53.94
2022-08-06T00:02:42.017Z,54.46
2022-08-06T00:05:17.899Z,54.54
2022-08-06T00:07:53.313Z,54.83
2022-08-06T00:10:29.770Z,55.28
2022-08-06T00:13:04.447Z,54.55
2022-08-06T00:16:05.859Z,57.00
2022-08-06T00:18:24.084Z,59.05
2022-08-06T00:23:24.315Z,57.53
2022-08-06T00:25:54.731Z,61.80
2022-08-06T00:28:31.444Z,61.05
2022-08-06T00:31:05.587Z,65.08
2022-08-06T00:33:43.962Z,63.57
2022-08-06T00:36:24.963Z,62.79
2022-08-06T00:38:54.505Z,61.95
2022-08-06T00:41:27.101Z,60.71
2022-08-06T00:44:02.466Z,60.69
2022-08-06T00:46:34.436Z,59.55
2022-08-06T00:49:11.515Z,60.30
2022-08-06T00:51:50.312Z,60.86
2022-08-06T00:54:27.384Z,60.13
2022-08-06T00:56:57.578Z,59.92
2022-08-06T00:59:35.412Z,60.02
2022-08-06T01:02:10.029Z,59.75
2022-08-06T01:04:39.845Z,59.42
2022-08-06T01:07:08.818Z,58.51
2022-08-06T01:09:57.034Z,58.23
2022-08-06T01:12:33.820Z,58.75
2022-08-06T01:15:15.618Z,58.19
2022-08-06T01:17:59.754Z,59.94
2022-08-06T01:21:59.508Z,59.71
2022-08-06T01:23:49.516Z,58.56
2022-08-06T01:26:40.805Z,59.78
2022-08-06T01:29:17.626Z,59.12
2022-08-06T01:31:52.307Z,59.56
2022-08-06T01:34:31.733Z,59.81
2022-08-06T01:37:11.784Z,59.70
2022-08-06T01:39:53.291Z,57.94
2022-08-06T01:42:35.917Z,59.08
2022-08-06T01:45:11.877Z,58.75
2022-08-06T01:47:54.143Z,59.26
2022-08-06T01:50:30.193Z,60.75
2022-08-06T01:53:01.339Z,61.32
2022-08-06T01:55:56.692Z,61.76
2022-08-06T01:58:30.161Z,63.66
2022-08-06T02:01:04.412Z,64.14
2022-08-06T02:03:39.105Z,65.67
2022-08-06T02:06:23.354Z,65.09
2022-08-06T02:09:22.385Z,64.93
2022-08-06T02:12:03.879Z,64.86
2022-08-06T02:14:41.866Z,65.81
2022-08-06T02:17:17.988Z,65.41
2022-08-06T02:20:18.638Z,64.64
2022-08-06T02:22:52.409Z,64.28
2022-08-06T02:25:30.777Z,64.38
2022-08-06T02:28:03.020Z,65.21
2022-08-06T02:30:37.065Z,65.44
2022-08-06T02:33:18.255Z,64.94
2022-08-06T02:35:50.992Z,63.12
2022-08-06T02:38:29.303Z,64.87
2022-08-06T02:41:03.652Z,64.67
2022-08-06T02:43:39.537Z,68.31
2022-08-06T02:46:14.940Z,67.25
2022-08-06T02:48:51.697Z,67.36
2022-08-06T02:51:44.018Z,67.89
2022-08-06T02:54:19.937Z,67.79
2022-08-06T02:56:52.419Z,67.56
2022-08-06T02:59:38.841Z,66.19
2022-08-06T03:02:14.819Z,67.21
2022-08-06T03:04:56.590Z,67.68
2022-08-06T03:07:29.220Z,67.73
2022-08-06T03:10:02.265Z,66.98
2022-08-06T03:12:33.263Z,69.17
2022-08-06T03:15:12.400Z,67.42
2022-08-06T03:17:47.706Z,67.41
2022-08-06T03:20:25.392Z,67.33
2022-08-06T03:22:57.414Z,68.08
2022-08-06T03:25:31.115Z,69.45
2022-08-06T03:28:02.516Z,69.31
2022-08-06T03:30:34.079Z,68.16
2022-08-06T03:33:07.856Z,68.71
2022-08-06T03:36:00.707Z,70.67
2022-08-06T03:38:33.944Z,68.83
2022-08-06T03:41:09.064Z,68.53
2022-08-06T03:43:55.923Z,69.44
2022-08-06T03:46:32.587Z,69.11
2022-08-06T03:49:07.250Z,68.33
2022-08-06T03:51:51.988Z,70.53
2022-08-06T03:54:30.429Z,68.36
2022-08-06T03:57:08.302Z,67.88
2022-08-06T03:59:57.564Z,70.33
2022-08-06T04:02:37.088Z,68.98
2022-08-06T04:05:22.912Z,67.93
2022-08-06T04:07:57.193Z,68.23
2022-08-06T04:10:33.790Z,67.44
2022-08-06T04:14:03.722Z,66.33
2022-08-06T04:16:02.032Z,68.31
2022-08-06T04:18:42.370Z,67.33
2022-08-06T04:21:20.745Z,66.63
2022-08-06T04:23:53.649Z,64.93
2022-08-06T04:26:28.736Z,64.62
2022-08-06T04:28:59.014Z,66.77
2022-08-06T04:32:11.170Z,70.24
2022-08-06T04:34:27.364Z,69.11
2022-08-06T04:37:01.369Z,68.17
2022-08-06T04:39:37.737Z,67.52
2022-08-06T04:42:19.619Z,70.17
2022-08-06T04:44:56.029Z,68.90
2022-08-06T04:47:41.373Z,72.06
2022-08-06T04:50:12.064Z,69.94
2022-08-06T04:52:48.135Z,68.82
2022-08-06T04:55:23.737Z,66.91
2022-08-06T04:57:56.371Z,67.75
2022-08-06T05:00:32.095Z,65.83
2022-08-06T05:03:20.959Z,63.59
2022-08-06T05:06:16.054Z,65.94
2022-08-06T05:08:52.205Z,61.74
2022-08-06T05:11:26.642Z,62.33
2022-08-06T05:13:59.772Z,61.29
2022-08-06T05:16:31.752Z,60.76
2022-08-06T05:19:20.184Z,60.54
2022-08-06T05:22:10.685Z,57.61
2022-08-06T05:25:00.553Z,56.92
2022-08-06T05:27:54.256Z,57.65
2022-08-06T05:30:22.924Z,57.39
2022-08-06T05:32:57.341Z,55.49
2022-08-06T05:35:40.376Z,54.44
2022-08-06T05:38:11.777Z,54.53
2022-08-06T05:40:53.605Z,55.56
2022-08-06T05:43:59.058Z,55.94
2022-08-06T05:46:21.467Z,57.74
2022-08-06T05:49:02.428Z,58.99
2022-08-06T05:51:48.819Z,58.06
2022-08-06T05:54:24.297Z,56.62
2022-08-06T05:56:56.103Z,57.11
2022-08-06T05:59:38.008Z,57.93
2022-08-06T06:02:22.833Z,60.06
2022-08-06T06:06:02.021Z,56.51
2022-08-06T06:08:08.261Z,54.62
2022-08-06T06:10:34.813Z,52.55
2022-08-06T06:13:04.848Z,50.14
2022-08-06T06:16:04.645Z,48.05
2022-08-06T06:18:47.229Z,50.13
2022-08-06T06:21:32.922Z,49.92
2022-08-06T06:24:16.644Z,48.42
2022-08-06T06:26:54.708Z,47.48
2022-08-06T06:30:05.595Z,46.07
2022-08-06T06:32:41.231Z,46.62
2022-08-06T06:35:32.534Z,45.60
2022-08-06T06:38:20.413Z,48.31
2022-08-06T06:41:06.630Z,49.12
2022-08-06T06:43:55.515Z,46.49
2022-08-06T06:46:37.615Z,46.02
2022-08-06T06:49:59.602Z,44.52
2022-08-06T06:52:10.841Z,41.58
2022-08-06T06:54:45.597Z,41.79
2022-08-06T06:57:23.518Z,40.72
2022-08-06T07:00:01.412Z,38.79
2022-08-06T07:02:49.437Z,38.26
2022-08-06T07:06:05.535Z,35.52
2022-08-06T07:08:16.261Z,37.27
2022-08-06T07:11:00.857Z,34.73
2022-08-06T07:13:47.882Z,35.59
2022-08-06T07:16:35.652Z,34.90
2022-08-06T07:19:10.466Z,35.27
2022-08-06T07:21:47.783Z,37.46
2022-08-06T07:24:38.193Z,37.36
2022-08-06T07:27:15.289Z,35.80
2022-08-06T07:29:49.123Z,35.79
2022-08-06T07:32:32.514Z,34.59
2022-08-06T07:35:11.915Z,34.97
2022-08-06T07:37:49.088Z,34.95
2022-08-06T07:40:24.487Z,34.20
2022-08-06T07:43:03.352Z,34.38
2022-08-06T07:45:50.881Z,33.54
2022-08-06T07:48:28.723Z,32.84
2022-08-06T07:51:05.256Z,31.87
2022-08-06T07:53:53.299Z,31.51
2022-08-06T07:56:29.537Z,31.59
2022-08-06T07:59:01.415Z,31.64
2022-08-06T08:01:37.077Z,31.37
2022-08-06T08:04:35.153Z,29.96
2022-08-06T08:07:14.703Z,28.96
2022-08-06T08:10:02.633Z,28.81
2022-08-06T08:12:36.305Z,28.10
2022-08-06T08:15:18.404Z,28.46
2022-08-06T08:17:57.273Z,28.71
2022-08-06T08:20:34.433Z,27.13
2022-08-06T08:23:08.390Z,27.06
2022-08-06T08:25:40.435Z,26.52
2022-08-06T08:28:14.960Z,26.30
2022-08-06T08:30:49.377Z,25.19
2022-08-06T08:33:19.181Z,25.57
2022-08-06T08:35:50.381Z,25.55
2022-08-06T08:38:30.047Z,24.70
2022-08-06T08:41:03.573Z,24.88
2022-08-06T08:43:58.789Z,26.88
2022-08-06T08:46:30.913Z,26.26
2022-08-06T08:49:04.870Z,25.53
2022-08-06T08:51:36.638Z,27.67
2022-08-06T08:54:16.612Z,28.05
2022-08-06T08:57:11.132Z,26.33
2022-08-06T08:59:57.702Z,24.76
2022-08-06T09:02:28.370Z,24.23
2022-08-06T09:04:58.376Z,24.58
2022-08-06T09:07:36.943Z,24.48
2022-08-06T09:10:09.303Z,24.95
2022-08-06T09:12:46.015Z,24.96
2022-08-06T09:15:19.062Z,25.05
2022-08-06T09:18:12.006Z,25.72
2022-08-06T09:20:41.278Z,25.21
2022-08-06T09:23:17.275Z,25.70
2022-08-06T09:25:52.149Z,24.97
2022-08-06T09:28:35.842Z,26.31
2022-08-06T09:31:10.310Z,27.00
2022-08-06T09:34:19.199Z,27.33
2022-08-06T09:36:52.369Z,27.61
2022-08-06T09:39:59.980Z,27.67
2022-08-06T09:42:39.183Z,26.77
2022-08-06T09:45:16.154Z,28.66
2022-08-06T09:47:57.946Z,26.67
2022-08-06T09:50:39.194Z,27.59
2022-08-06T09:53:14.328Z,27.68
2022-08-06T09:55:44.666Z,27.18
2022-08-06T09:58:14.229Z,25.71
2022-08-06T10:00:46.253Z,25.15
2022-08-06T10:04:03.395Z,25.50
2022-08-06T10:06:14.640Z,24.63
2022-08-06T10:08:49.564Z,24.56
2022-08-06T10:11:41.192Z,24.19
2022-08-06T10:14:24.019Z,24.39
2022-08-06T10:17:14.158Z,24.65
2022-08-06T10:19:52.333Z,23.17
2022-08-06T10:22:27.088Z,23.10
2022-08-06T10:24:58.145Z,23.42
2022-08-06T10:27:36.427Z,24.18
2022-08-06T10:30:09.990Z,22.82
2022-08-06T10:32:46.023Z,23.79
2022-08-06T10:35:20.776Z,23.48
2022-08-06T10:37:58.781Z,22.74
2022-08-06T10:40:35.973Z,22.89
2022-08-06T10:43:12.550Z,22.79
2022-08-06T10:45:49.919Z,22.40
2022-08-06T10:48:56.800Z,21.64
2022-08-06T10:51:12.777Z,21.81
2022-08-06T10:54:02.480Z,21.70
2022-08-06T10:56:38.950Z,21.70
2022-08-06T10:59:15.264Z,23.25
2022-08-06T11:02:01.903Z,23.93
2022-08-06T11:04:49.653Z,23.24
2022-08-06T11:08:14.394Z,21.95
2022-08-06T11:11:19.852Z,21.70
2022-08-06T11:14:03.790Z,22.27
2022-08-06T11:16:36.106Z,21.69
2022-08-06T11:19:08.116Z,21.57
2022-08-06T11:21:59.290Z,21.13
2022-08-06T11:24:37.623Z,22.18
2022-08-06T11:27:36.042Z,21.22
2022-08-06T11:30:16.655Z,22.32
2022-08-06T11:32:55.652Z,21.40
2022-08-06T11:35:51.871Z,21.71
2022-08-06T11:39:09.843Z,21.16
2022-08-06T11:41:55.048Z,22.08
2022-08-06T11:44:32.006Z,22.34
2022-08-06T11:47:36.684Z,23.04
2022-08-06T11:50:27.185Z,21.65
2022-08-06T11:52:56.939Z,21.98
2022-08-06T11:55:28.102Z,22.20
2022-08-06T11:58:21.834Z,21.43
2022-08-06T12:01:03.726Z,21.37
2022-08-06T12:03:52.629Z,22.46
2022-08-06T12:06:27.059Z,22.66
2022-08-06T12:09:21.078Z,22.60
2022-08-06T12:11:55.627Z,21.20
2022-08-06T12:14:49.387Z,20.50
2022-08-06T12:17:21.043Z,21.01
2022-08-06T12:20:01.780Z,21.47
2022-08-06T12:22:35.731Z,22.83
2022-08-06T12:25:11.097Z,23.58
2022-08-06T12:27:50.564Z,23.07
2022-08-06T12:30:36.198Z,22.11
2022-08-06T12:33:13.875Z,21.09
2022-08-06T12:35:56.223Z,20.00
2022-08-06T12:38:31.744Z,20.67
2022-08-06T12:41:09.629Z,21.67
2022-08-06T12:43:56.705Z,21.78
2022-08-06T12:46:29.772Z,22.41
2022-08-06T12:49:03.695Z,23.01
2022-08-06T12:51:33.123Z,23.14
2022-08-06T12:54:06.969Z,23.95
2022-08-06T12:56:40.591Z,24.61
2022-08-06T12:59:23.906Z,24.54
2022-08-06T13:02:07.811Z,24.12
2022-08-06T13:04:47.047Z,25.38
2022-08-06T13:07:16.624Z,25.08
2022-08-06T13:10:16.833Z,25.29
2022-08-06T13:14:02.546Z,24.92
2022-08-06T13:15:31.835Z,23.25
2022-08-06T13:18:41.586Z,23.34
2022-08-06T13:21:18.365Z,23.44
2022-08-06T13:23:49.943Z,22.54
2022-08-06T13:26:25.652Z,23.80
2022-08-06T13:30:29.158Z,24.07
2022-08-06T13:32:03.963Z,24.20
2022-08-06T13:34:51.031Z,23.85
2022-08-06T13:37:54.242Z,24.46
2022-08-06T13:40:39.271Z,24.77
2022-08-06T13:43:11.561Z,24.62
2022-08-06T13:46:08.211Z,25.08
2022-08-06T13:48:46.570Z,25.15
2022-08-06T13:51:22.186Z,23.28
2022-08-06T13:53:57.015Z,22.40
2022-08-06T13:56:31.283Z,22.35
2022-08-06T13:59:01.544Z,21.97
2022-08-06T14:01:44.170Z,22.63
2022-08-06T14:04:22.939Z,22.92
2022-08-06T14:06:59.420Z,23.46
2022-08-06T14:09:57.555Z,22.99
2022-08-06T14:12:20.783Z,23.15
2022-08-06T14:14:50.988Z,24.74
2022-08-06T14:17:19.997Z,24.31
2022-08-06T14:20:17.688Z,24.41
2022-08-06T14:22:43.132Z,24.56
2022-08-06T14:25:12.229Z,23.77
2022-08-06T14:27:44.848Z,22.71
2022-08-06T14:30:29.293Z,22.43
2022-08-06T14:33:10.889Z,21.79
2022-08-06T14:35:53.350Z,21.79
2022-08-06T14:38:31.746Z,21.65
2022-08-06T14:41:47.180Z,21.29
2022-08-06T14:44:25.960Z,20.89
2022-08-06T14:46:55.639Z,21.62
2022-08-06T14:49:33.226Z,22.60
2022-08-06T14:52:23.533Z,23.20
2022-08-06T14:54:56.283Z,24.20
2022-08-06T14:58:03.495Z,25.12
2022-08-06T15:00:34.919Z,25.20
2022-08-06T15:03:08.074Z,24.95
2022-08-06T15:06:00.071Z,23.74
2022-08-06T15:08:34.257Z,23.40
2022-08-06T15:11:06.046Z,23.05
2022-08-06T15:13:43.699Z,23.42
2022-08-06T15:16:48.138Z,22.85
2022-08-06T15:19:19.682Z,23.10
2022-08-06T15:21:57.884Z,23.54
2022-08-06T15:24:30.985Z,24.22
2022-08-06T15:27:09.190Z,24.96
2022-08-06T15:29:38.457Z,25.17
2022-08-06T15:32:18.177Z,25.05
2022-08-06T15:34:49.996Z,24.97
2022-08-06T15:37:56.494Z,24.59
2022-08-06T15:40:12.778Z,24.47
2022-08-06T15:42:43.049Z,23.77
2022-08-06T15:45:49.620Z,24.40
2022-08-06T15:48:02.891Z,24.54
2022-08-06T15:50:43.068Z,24.25
2022-08-06T15:53:23.229Z,23.49
2022-08-06T15:55:54.401Z,23.84
2022-08-06T15:58:28.998Z,24.07
2022-08-06T16:01:04.084Z,24.54
2022-08-06T16:03:56.149Z,25.42
2022-08-06T16:06:26.109Z,26.57
2022-08-06T16:08:59.557Z,27.06
2022-08-06T16:11:50.796Z,27.25
2022-08-06T16:14:20.130Z,27.15
2022-08-06T16:17:03.021Z,27.37
2022-08-06T16:19:33.997Z,27.72
2022-08-06T16:22:18.999Z,27.49
2022-08-06T16:24:48.942Z,27.92
2022-08-06T16:27:19.860Z,27.52
2022-08-06T16:29:49.382Z,27.67
2022-08-06T16:32:25.896Z,27.35
2022-08-06T16:35:00.045Z,27.84
2022-08-06T16:37:33.263Z,27.81
2022-08-06T16:40:09.851Z,27.94
2022-08-06T16:42:40.578Z,28.44
2022-08-06T16:45:14.115Z,28.19
2022-08-06T16:50:37.179Z,28.36
2022-08-06T16:54:11.520Z,28.80
2022-08-06T16:55:56.180Z,28.62
2022-08-06T16:58:35.253Z,28.79
2022-08-06T17:02:15.414Z,29.22
2022-08-06T17:04:03.214Z,29.56
2022-08-06T17:06:34.995Z,29.42
2022-08-06T17:09:16.506Z,29.81
2022-08-06T17:11:52.027Z,29.69
2022-08-06T17:14:32.064Z,29.81
2022-08-06T17:17:06.960Z,29.99
2022-08-06T17:19:38.059Z,29.85
2022-08-06T17:22:10.638Z,29.66
2022-08-06T17:24:45.005Z,29.75
2022-08-06T17:27:16.086Z,30.19
2022-08-06T17:29:48.793Z,30.27
2022-08-06T17:32:32.043Z,30.21
2022-08-06T17:35:08.933Z,29.38
2022-08-06T17:40:32.548Z,30.53
2022-08-06T17:43:13.080Z,30.48
2022-08-06T17:46:00.454Z,31.12
2022-08-06T17:48:38.881Z,31.41
2022-08-06T17:51:09.638Z,31.33
2022-08-06T17:53:54.194Z,32.05
2022-08-06T17:56:30.117Z,31.90
2022-08-06T17:59:17.978Z,32.23
2022-08-06T18:01:51.663Z,32.01
2022-08-06T18:04:30.673Z,31.85
2022-08-06T18:07:12.227Z,32.34
2022-08-06T18:10:09.313Z,32.58
2022-08-06T18:12:48.563Z,33.08
2022-08-06T18:15:19.525Z,33.90
2022-08-06T18:18:04.070Z,33.39
2022-08-06T18:20:41.749Z,34.07
2022-08-06T18:23:21.434Z,34.64
2022-08-06T18:25:57.159Z,34.32
2022-08-06T18:28:40.086Z,34.42
2022-08-06T18:31:20.094Z,34.58
2022-08-06T18:33:53.725Z,34.39
2022-08-06T18:36:33.004Z,34.12
2022-08-06T18:39:02.994Z,34.37
2022-08-06T18:41:57.058Z,34.69
2022-08-06T18:44:27.237Z,34.65
2022-08-06T18:47:03.572Z,35.07
2022-08-06T18:49:50.498Z,35.38
2022-08-06T18:52:23.166Z,35.69
2022-08-06T18:54:56.354Z,35.52
2022-08-06T18:58:04.874Z,35.55
2022-08-06T19:00:21.190Z,36.15
2022-08-06T19:02:53.839Z,36.45
2022-08-06T19:05:28.157Z,38.25
2022-08-06T19:07:59.746Z,37.92
2022-08-06T19:10:30.500Z,37.69
2022-08-06T19:12:59.790Z,37.40
2022-08-06T19:15:46.197Z,37.99
2022-08-06T19:18:24.196Z,38.08
2022-08-06T19:20:56.575Z,37.97
2022-08-06T19:24:03.520Z,38.67
2022-08-06T19:26:16.604Z,38.96
2022-08-06T19:28:50.001Z,39.64
2022-08-06T19:31:23.662Z,39.85
2022-08-06T19:34:14.572Z,39.15
2022-08-06T19:36:48.253Z,39.60
2022-08-06T19:39:52.904Z,40.12
2022-08-06T19:42:13.407Z,40.99
2022-08-06T19:45:04.290Z,44.41
2022-08-06T19:47:47.353Z,43.25
2022-08-06T19:50:19.671Z,42.00
2022-08-06T19:52:50.328Z,42.80
2022-08-06T19:56:07.020Z,42.68
2022-08-06T19:58:26.025Z,42.63
2022-08-06T20:01:31.849Z,43.63
2022-08-06T20:03:58.003Z,43.45
2022-08-06T20:06:40.268Z,43.37
2022-08-06T20:09:29.247Z,43.29
2022-08-06T20:12:11.412Z,42.35
2022-08-06T20:14:40.499Z,42.74
2022-08-06T20:17:12.909Z,42.95
2022-08-06T20:20:05.355Z,43.99
2022-08-06T20:22:31.069Z,45.25
2022-08-06T20:25:12.083Z,45.57
2022-08-06T20:29:07.713Z,45.68
2022-08-06T20:30:44.495Z,45.49
2022-08-06T20:33:19.451Z,45.94
2022-08-06T20:35:57.080Z,46.56
2022-08-06T20:38:39.869Z,46.08
2022-08-06T20:41:58.828Z,46.66
2022-08-06T20:44:08.417Z,46.33
2022-08-06T20:47:00.799Z,46.83
2022-08-06T20:49:47.898Z,46.88
2022-08-06T20:52:18.042Z,47.89
2022-08-06T20:54:51.813Z,47.71
2022-08-06T20:57:27.297Z,47.51
2022-08-06T20:59:57.902Z,46.88
2022-08-06T21:02:32.350Z,46.51
2022-08-06T21:05:12.874Z,46.99
2022-08-06T21:07:56.835Z,47.01
2022-08-06T21:10:30.987Z,47.27
2022-08-06T21:13:06.743Z,47.13
2022-08-06T21:15:54.868Z,48.07
2022-08-06T21:18:27.620Z,47.41
2022-08-06T21:20:57.260Z,47.77
2022-08-06T21:23:55.848Z,48.72
2022-08-06T21:26:19.130Z,47.52
2022-08-06T21:28:55.646Z,51.15
2022-08-06T21:31:27.570Z,50.62
2022-08-06T21:33:57.268Z,50.44
2022-08-06T21:36:28.867Z,51.07
2022-08-06T21:38:59.196Z,50.19
2022-08-06T21:41:54.738Z,50.62
2022-08-06T21:44:24.257Z,50.60
2022-08-06T21:46:58.789Z,49.78
2022-08-06T21:50:00.145Z,49.49
2022-08-06T21:52:27.731Z,49.61
2022-08-06T21:55:11.575Z,49.96
2022-08-06T21:57:48.077Z,50.60
2022-08-06T22:00:36.709Z,51.22
2022-08-06T22:04:36.777Z,51.04
2022-08-06T22:06:20.389Z,51.34
2022-08-06T22:08:53.009Z,52.03
2022-08-06T22:12:36.572Z,51.20
2022-08-06T22:14:16.304Z,53.76
2022-08-06T22:16:48.771Z,56.92
2022-08-06T22:19:33.414Z,58.13
2022-08-06T22:22:07.754Z,59.13
2022-08-06T22:24:38.203Z,58.15
2022-08-06T22:27:12.490Z,56.39
2022-08-06T22:30:04.425Z,58.22
2022-08-06T22:32:36.197Z,57.04
2022-08-06T22:35:09.743Z,56.34
2022-08-06T22:38:17.043Z,56.25
2022-08-06T22:40:30.591Z,55.55
2022-08-06T22:43:17.078Z,55.08
2022-08-06T22:46:02.576Z,54.58
2022-08-06T22:48:36.367Z,54.50
2022-08-06T22:51:11.771Z,55.48
2022-08-06T22:54:28.879Z,53.74
2022-08-06T22:56:38.534Z,56.03
2022-08-06T22:59:31.780Z,56.13
2022-08-06T23:02:06.817Z,55.61
2022-08-06T23:04:46.890Z,54.31
2022-08-06T23:07:21.545Z,54.48
2022-08-06T23:09:58.630Z,56.68
2022-08-06T23:12:36.094Z,56.60
2022-08-06T23:15:30.335Z,57.76
2022-08-06T23:18:00.185Z,58.00
2022-08-06T23:20:32.898Z,56.65
2022-08-06T23:23:04.855Z,56.38
2022-08-06T23:26:00.065Z,55.35
2022-08-06T23:28:23.562Z,53.29
2022-08-06T23:30:57.393Z,54.56
2022-08-06T23:33:38.590Z,53.83
2022-08-06T23:36:17.898Z,53.60
2022-08-06T23:38:50.875Z,53.94
2022-08-06T23:41:24.145Z,55.36
2022-08-06T23:43:53.693Z,56.97
2022-08-06T23:46:27.763Z,59.75
2022-08-06T23:48:58.645Z,60.31
2022-08-06T23:52:01.042Z,59.93
2022-08-06T23:54:28.404Z,61.99
2022-08-06T23:56:58.053Z,62.52
2022-08-06T23:59:45.677Z,63.12
